sensor_id;sensor_type;location;lat;lon;timestamp;pressure;altitude;pressure_sealevel;temperature;humidity
72359;BME280;60317;48.880;-0.862;2023-05-09T00:00:44;100428.63;;;20.93;51.52
72359;BME280;60317;48.880;-0.862;2023-05-09T00:03:12;100425.53;;;20.97;51.44
72359;BME280;60317;48.880;-0.862;2023-05-09T00:05:38;100424.25;;;21.02;51.51
72359;BME280;60317;48.880;-0.862;2023-05-09T00:08:05;100411.28;;;21.07;51.41
72359;BME280;60317;48.880;-0.862;2023-05-09T00:10:32;100414.66;;;21.09;51.27
72359;BME280;60317;48.880;-0.862;2023-05-09T00:12:58;100406.47;;;21.10;51.29
72359;BME280;60317;48.880;-0.862;2023-05-09T00:15:25;100400.94;;;21.12;51.30
72359;BME280;60317;48.880;-0.862;2023-05-09T00:17:52;100395.56;;;21.12;51.35
72359;BME280;60317;48.880;-0.862;2023-05-09T00:20:20;100398.66;;;20.97;51.50
72359;BME280;60317;48.880;-0.862;2023-05-09T00:22:46;100397.66;;;20.98;51.52
72359;BME280;60317;48.880;-0.862;2023-05-09T00:25:13;100389.19;;;21.03;51.43
72359;BME280;60317;48.880;-0.862;2023-05-09T00:27:39;100383.41;;;21.08;51.47
72359;BME280;60317;48.880;-0.862;2023-05-09T00:30:07;100396.69;;;21.09;51.32
72359;BME280;60317;48.880;-0.862;2023-05-09T00:32:33;100386.81;;;21.10;51.48
72359;BME280;60317;48.880;-0.862;2023-05-09T00:35:00;100388.34;;;21.12;51.42
72359;BME280;60317;48.880;-0.862;2023-05-09T00:37:29;100384.94;;;21.01;51.34
72359;BME280;60317;48.880;-0.862;2023-05-09T00:39:56;100374.63;;;20.96;51.70
72359;BME280;60317;48.880;-0.862;2023-05-09T00:42:22;100371.50;;;21.01;51.37
72359;BME280;60317;48.880;-0.862;2023-05-09T00:44:49;100368.56;;;21.04;51.55
72359;BME280;60317;48.880;-0.862;2023-05-09T00:47:15;100361.91;;;21.08;51.52
72359;BME280;60317;48.880;-0.862;2023-05-09T00:49:42;100359.94;;;21.10;51.38
72359;BME280;60317;48.880;-0.862;2023-05-09T00:52:09;100351.00;;;21.09;51.40
72359;BME280;60317;48.880;-0.862;2023-05-09T00:54:36;100344.50;;;21.12;51.55
72359;BME280;60317;48.880;-0.862;2023-05-09T00:57:03;100341.97;;;21.01;51.65
72359;BME280;60317;48.880;-0.862;2023-05-09T00:59:30;100343.66;;;20.92;51.73
72359;BME280;60317;48.880;-0.862;2023-05-09T01:01:56;100341.38;;;20.97;51.49
72359;BME280;60317;48.880;-0.862;2023-05-09T01:04:23;100338.28;;;21.02;51.56
72359;BME280;60317;48.880;-0.862;2023-05-09T01:06:54;100339.69;;;21.06;51.46
72359;BME280;60317;48.880;-0.862;2023-05-09T01:09:28;100332.50;;;21.06;51.41
72359;BME280;60317;48.880;-0.862;2023-05-09T01:12:08;100321.31;;;21.11;51.49
72359;BME280;60317;48.880;-0.862;2023-05-09T01:14:41;100319.47;;;21.11;51.54
72359;BME280;60317;48.880;-0.862;2023-05-09T01:17:11;100317.22;;;21.07;51.43
72359;BME280;60317;48.880;-0.862;2023-05-09T01:20:01;100311.41;;;20.92;51.70
72359;BME280;60317;48.880;-0.862;2023-05-09T01:22:31;100305.47;;;20.98;51.56
72359;BME280;60317;48.880;-0.862;2023-05-09T01:25:19;100307.75;;;21.03;51.66
72359;BME280;60317;48.880;-0.862;2023-05-09T01:28:02;100299.38;;;21.06;51.47
72359;BME280;60317;48.880;-0.862;2023-05-09T01:30:36;100302.78;;;21.08;51.47
72359;BME280;60317;48.880;-0.862;2023-05-09T01:33:06;100300.94;;;21.08;51.60
72359;BME280;60317;48.880;-0.862;2023-05-09T01:35:36;100296.28;;;21.10;51.37
72359;BME280;60317;48.880;-0.862;2023-05-09T01:38:09;100284.69;;;21.10;51.61
72359;BME280;60317;48.880;-0.862;2023-05-09T01:40:39;100286.09;;;20.94;51.53
72359;BME280;60317;48.880;-0.862;2023-05-09T01:43:08;100289.50;;;20.96;51.66
72359;BME280;60317;48.880;-0.862;2023-05-09T01:45:38;100281.00;;;21.01;51.68
72359;BME280;60317;48.880;-0.862;2023-05-09T01:48:06;100278.88;;;21.05;51.50
72359;BME280;60317;48.880;-0.862;2023-05-09T01:50:34;100273.22;;;21.08;51.67
72359;BME280;60317;48.880;-0.862;2023-05-09T01:53:02;100272.22;;;21.09;51.55
72359;BME280;60317;48.880;-0.862;2023-05-09T01:55:33;100269.53;;;21.09;51.49
72359;BME280;60317;48.880;-0.862;2023-05-09T01:58:02;100264.88;;;21.11;51.64
72359;BME280;60317;48.880;-0.862;2023-05-09T02:00:30;100268.84;;;20.97;51.73
72359;BME280;60317;48.880;-0.862;2023-05-09T02:02:58;100265.44;;;20.95;51.85
72359;BME280;60317;48.880;-0.862;2023-05-09T02:05:27;100257.09;;;20.98;51.71
72359;BME280;60317;48.880;-0.862;2023-05-09T02:07:54;100261.75;;;21.06;51.51
72359;BME280;60317;48.880;-0.862;2023-05-09T02:10:22;100259.78;;;21.08;51.47
72359;BME280;60317;48.880;-0.862;2023-05-09T02:12:48;100257.94;;;21.08;51.52
72359;BME280;60317;48.880;-0.862;2023-05-09T02:15:15;100265.00;;;21.09;51.75
72359;BME280;60317;48.880;-0.862;2023-05-09T02:17:42;100262.19;;;21.11;51.60
72359;BME280;60317;48.880;-0.862;2023-05-09T02:20:10;100257.94;;;20.98;51.70
72359;BME280;60317;48.880;-0.862;2023-05-09T02:22:39;100256.41;;;20.96;51.93
72359;BME280;60317;48.880;-0.862;2023-05-09T02:25:06;100256.69;;;21.03;51.55
72359;BME280;60317;48.880;-0.862;2023-05-09T02:27:33;100259.06;;;21.06;51.66
72359;BME280;60317;48.880;-0.862;2023-05-09T02:30:02;100265.16;;;21.08;51.59
72359;BME280;60317;48.880;-0.862;2023-05-09T02:32:30;100264.88;;;21.11;51.55
72359;BME280;60317;48.880;-0.862;2023-05-09T02:35:00;100256.81;;;21.11;51.76
72359;BME280;60317;48.880;-0.862;2023-05-09T02:37:28;100250.59;;;21.10;51.71
72359;BME280;60317;48.880;-0.862;2023-05-09T02:39:55;100252.56;;;20.98;51.70
72359;BME280;60317;48.880;-0.862;2023-05-09T02:42:24;100243.94;;;20.95;51.83
72359;BME280;60317;48.880;-0.862;2023-05-09T02:44:51;100245.22;;;21.01;51.62
72359;BME280;60317;48.880;-0.862;2023-05-09T02:47:17;100241.25;;;21.05;51.76
72359;BME280;60317;48.880;-0.862;2023-05-09T02:49:44;100243.66;;;21.08;51.62
72359;BME280;60317;48.880;-0.862;2023-05-09T02:52:11;100246.19;;;21.09;51.60
72359;BME280;60317;48.880;-0.862;2023-05-09T02:54:39;100251.44;;;21.11;51.75
72359;BME280;60317;48.880;-0.862;2023-05-09T02:57:06;100245.22;;;21.10;51.75
72359;BME280;60317;48.880;-0.862;2023-05-09T02:59:32;100239.56;;;20.94;51.62
72359;BME280;60317;48.880;-0.862;2023-05-09T03:01:59;100238.56;;;20.95;51.87
72359;BME280;60317;48.880;-0.862;2023-05-09T03:04:25;100241.53;;;21.02;51.63
72359;BME280;60317;48.880;-0.862;2023-05-09T03:06:52;100233.19;;;21.05;51.67
72359;BME280;60317;48.880;-0.862;2023-05-09T03:09:18;100233.75;;;21.08;51.66
72359;BME280;60317;48.880;-0.862;2023-05-09T03:11:46;100224.69;;;21.09;51.72
72359;BME280;60317;48.880;-0.862;2023-05-09T03:14:12;100220.88;;;21.12;51.61
72359;BME280;60317;48.880;-0.862;2023-05-09T03:16:39;100220.47;;;21.07;51.75
72359;BME280;60317;48.880;-0.862;2023-05-09T03:19:06;100214.56;;;20.93;51.60
72359;BME280;60317;48.880;-0.862;2023-05-09T03:21:32;100223.00;;;20.98;51.78
72359;BME280;60317;48.880;-0.862;2023-05-09T03:23:58;100220.75;;;21.04;51.59
72359;BME280;60317;48.880;-0.862;2023-05-09T03:26:25;100221.31;;;21.07;51.63
72359;BME280;60317;48.880;-0.862;2023-05-09T03:28:53;100214.94;;;21.08;51.67
72359;BME280;60317;48.880;-0.862;2023-05-09T03:31:19;100214.81;;;21.10;51.68
72359;BME280;60317;48.880;-0.862;2023-05-09T03:33:46;100216.50;;;21.11;51.74
72359;BME280;60317;48.880;-0.862;2023-05-09T03:36:13;100217.34;;;21.11;51.70
72359;BME280;60317;48.880;-0.862;2023-05-09T03:38:39;100221.31;;;20.97;51.60
72359;BME280;60317;48.880;-0.862;2023-05-09T03:41:06;100211.59;;;20.96;51.92
72359;BME280;60317;48.880;-0.862;2023-05-09T03:43:32;100208.31;;;21.03;51.62
72359;BME280;60317;48.880;-0.862;2023-05-09T03:46:00;100208.88;;;21.06;51.72
72359;BME280;60317;48.880;-0.862;2023-05-09T03:48:26;100208.72;;;21.08;51.74
72359;BME280;60317;48.880;-0.862;2023-05-09T03:50:53;100201.38;;;21.10;51.73
72359;BME280;60317;48.880;-0.862;2023-05-09T03:53:19;100205.75;;;21.11;51.69
72359;BME280;60317;48.880;-0.862;2023-05-09T03:55:46;100209.19;;;21.03;51.95
72359;BME280;60317;48.880;-0.862;2023-05-09T03:58:12;100204.81;;;20.92;52.07
72359;BME280;60317;48.880;-0.862;2023-05-09T04:00:40;100206.91;;;20.98;51.86
72359;BME280;60317;48.880;-0.862;2023-05-09T04:03:08;100211.88;;;21.03;51.74
72359;BME280;60317;48.880;-0.862;2023-05-09T04:05:34;100213.38;;;21.06;51.84
72359;BME280;60317;48.880;-0.862;2023-05-09T04:08:01;100216.78;;;21.08;51.65
72359;BME280;60317;48.880;-0.862;2023-05-09T04:10:29;100210.41;;;21.09;51.88
72359;BME280;60317;48.880;-0.862;2023-05-09T04:12:56;100208.44;;;21.11;51.92
72359;BME280;60317;48.880;-0.862;2023-05-09T04:15:22;100207.44;;;21.02;51.96
72359;BME280;60317;48.880;-0.862;2023-05-09T04:17:49;100213.56;;;20.94;52.16
72359;BME280;60317;48.880;-0.862;2023-05-09T04:20:16;100207.91;;;20.97;51.90
72359;BME280;60317;48.880;-0.862;2023-05-09T04:22:43;100210.16;;;21.02;51.89
72359;BME280;60317;48.880;-0.862;2023-05-09T04:25:12;100200.13;;;21.04;51.95
72359;BME280;60317;48.880;-0.862;2023-05-09T04:27:39;100209.72;;;21.07;51.86
72359;BME280;60317;48.880;-0.862;2023-05-09T04:30:06;100205.03;;;21.09;51.91
72359;BME280;60317;48.880;-0.862;2023-05-09T04:32:33;100204.06;;;21.10;51.91
72359;BME280;60317;48.880;-0.862;2023-05-09T04:35:00;100197.03;;;20.99;51.90
72359;BME280;60317;48.880;-0.862;2023-05-09T04:37:27;100203.81;;;20.93;52.06
72359;BME280;60317;48.880;-0.862;2023-05-09T04:39:54;100198.72;;;21.00;51.90
72359;BME280;60317;48.880;-0.862;2023-05-09T04:42:20;100208.31;;;21.03;51.71
72359;BME280;60317;48.880;-0.862;2023-05-09T04:44:47;100207.75;;;20.60;52.81
72359;BME280;60317;48.880;-0.862;2023-05-09T04:47:13;100207.28;;;20.45;54.44
72359;BME280;60317;48.880;-0.862;2023-05-09T04:49:40;100216.88;;;20.29;56.89
72359;BME280;60317;48.880;-0.862;2023-05-09T04:52:06;100213.03;;;20.21;56.27
72359;BME280;60317;48.880;-0.862;2023-05-09T04:54:34;100207.94;;;20.09;55.93
72359;BME280;60317;48.880;-0.862;2023-05-09T04:57:00;100206.38;;;20.06;56.01
72359;BME280;60317;48.880;-0.862;2023-05-09T04:59:43;100204.97;;;20.02;56.78
72359;BME280;60317;48.880;-0.862;2023-05-09T05:02:09;100202.00;;;20.05;58.18
72359;BME280;60317;48.880;-0.862;2023-05-09T05:04:36;100212.72;;;20.05;58.54
72359;BME280;60317;48.880;-0.862;2023-05-09T05:07:02;100204.69;;;20.05;58.54
72359;BME280;60317;48.880;-0.862;2023-05-09T05:09:29;100203.25;;;20.01;59.12
72359;BME280;60317;48.880;-0.862;2023-05-09T05:11:56;100207.94;;;20.09;58.43
72359;BME280;60317;48.880;-0.862;2023-05-09T05:14:29;100206.00;;;20.30;57.35
72359;BME280;60317;48.880;-0.862;2023-05-09T05:16:55;100206.94;;;20.50;56.63
72359;BME280;60317;48.880;-0.862;2023-05-09T05:19:22;100201.41;;;20.61;56.29
72359;BME280;60317;48.880;-0.862;2023-05-09T05:21:48;100210.88;;;20.65;56.10
72359;BME280;60317;48.880;-0.862;2023-05-09T05:24:15;100201.69;;;20.68;55.81
72359;BME280;60317;48.880;-0.862;2023-05-09T05:26:41;100198.59;;;20.72;55.62
72359;BME280;60317;48.880;-0.862;2023-05-09T05:29:09;100200.84;;;20.77;55.59
72359;BME280;60317;48.880;-0.862;2023-05-09T05:31:35;100202.38;;;20.70;55.39
72359;BME280;60317;48.880;-0.862;2023-05-09T05:34:02;100200.13;;;20.65;55.38
72359;BME280;60317;48.880;-0.862;2023-05-09T05:36:29;100195.06;;;20.72;54.98
72359;BME280;60317;48.880;-0.862;2023-05-09T05:38:55;100192.78;;;20.77;54.76
72359;BME280;60317;48.880;-0.862;2023-05-09T05:41:22;100198.88;;;20.79;54.78
72359;BME280;60317;48.880;-0.862;2023-05-09T05:43:48;100196.75;;;20.83;54.62
72359;BME280;60317;48.880;-0.862;2023-05-09T05:46:17;100200.28;;;20.83;54.48
72359;BME280;60317;48.880;-0.862;2023-05-09T05:48:43;100193.50;;;20.69;54.68
72359;BME280;60317;48.880;-0.862;2023-05-09T05:51:10;100190.53;;;20.72;54.56
72359;BME280;60317;48.880;-0.862;2023-05-09T05:53:37;100175.53;;;20.80;54.11
72359;BME280;60317;48.880;-0.862;2023-05-09T05:56:03;100180.63;;;20.83;54.11
72359;BME280;60317;48.880;-0.862;2023-05-09T05:58:30;100184.72;;;20.87;54.13
72359;BME280;60317;48.880;-0.862;2023-05-09T06:00:56;100178.50;;;20.86;54.06
72359;BME280;60317;48.880;-0.862;2023-05-09T06:03:24;100184.56;;;20.88;54.04
72359;BME280;60317;48.880;-0.862;2023-05-09T06:05:51;100176.22;;;20.91;54.01
72359;BME280;60317;48.880;-0.862;2023-05-09T06:08:17;100184.59;;;20.79;54.08
72359;BME280;60317;48.880;-0.862;2023-05-09T06:10:44;100181.47;;;20.73;54.11
72359;BME280;60317;48.880;-0.862;2023-05-09T06:13:10;100188.53;;;20.84;53.74
72359;BME280;60317;48.880;-0.862;2023-05-09T06:15:37;100190.53;;;20.92;53.69
72359;BME280;60317;48.880;-0.862;2023-05-09T06:18:03;100195.03;;;21.01;53.90
72359;BME280;60317;48.880;-0.862;2023-05-09T06:20:31;100193.44;;;21.08;53.92
72359;BME280;60317;48.880;-0.862;2023-05-09T06:22:58;100187.34;;;21.16;53.91
72359;BME280;60317;48.880;-0.862;2023-05-09T06:25:25;100176.31;;;21.19;54.04
72359;BME280;60317;48.880;-0.862;2023-05-09T06:27:51;100184.09;;;21.12;54.07
72359;BME280;60317;48.880;-0.862;2023-05-09T06:30:18;100176.09;;;21.03;54.34
72359;BME280;60317;48.880;-0.862;2023-05-09T06:32:52;100175.06;;;21.13;53.86
72359;BME280;60317;48.880;-0.862;2023-05-09T06:35:19;100180.28;;;21.15;53.75
72359;BME280;60317;48.880;-0.862;2023-05-09T06:37:47;100178.44;;;21.25;53.81
72359;BME280;60317;48.880;-0.862;2023-05-09T06:40:14;100176.75;;;21.24;53.91
72359;BME280;60317;48.880;-0.862;2023-05-09T06:42:41;100171.75;;;21.29;53.96
72359;BME280;60317;48.880;-0.862;2023-05-09T06:45:08;100174.16;;;21.32;53.86
72359;BME280;60317;48.880;-0.862;2023-05-09T06:47:35;100178.59;;;21.24;54.15
72359;BME280;60317;48.880;-0.862;2023-05-09T06:50:02;100171.94;;;21.18;53.32
72359;BME280;60317;48.880;-0.862;2023-05-09T06:52:28;100175.03;;;21.23;53.76
72359;BME280;60317;48.880;-0.862;2023-05-09T06:54:56;100171.47;;;21.32;53.56
72359;BME280;60317;48.880;-0.862;2023-05-09T06:57:23;100163.16;;;21.35;53.53
72359;BME280;60317;48.880;-0.862;2023-05-09T06:59:49;100164.56;;;21.39;53.33
72359;BME280;60317;48.880;-0.862;2023-05-09T07:02:16;100161.56;;;21.42;53.42
72359;BME280;60317;48.880;-0.862;2023-05-09T07:04:42;100157.75;;;21.45;53.37
72359;BME280;60317;48.880;-0.862;2023-05-09T07:07:09;100153.06;;;21.47;53.30
72359;BME280;60317;48.880;-0.862;2023-05-09T07:09:35;100159.16;;;21.49;53.43
72359;BME280;60317;48.880;-0.862;2023-05-09T07:12:03;100167.22;;;21.30;53.92
72359;BME280;60317;48.880;-0.862;2023-05-09T07:14:30;100157.66;;;21.17;54.48
72359;BME280;60317;48.880;-0.862;2023-05-09T07:16:57;100153.25;;;21.16;54.31
72359;BME280;60317;48.880;-0.862;2023-05-09T07:19:43;100156.09;;;21.15;54.94
72359;BME280;60317;48.880;-0.862;2023-05-09T07:22:09;100155.25;;;21.14;54.87
72359;BME280;60317;48.880;-0.862;2023-05-09T07:24:36;100160.75;;;21.13;54.99
72359;BME280;60317;48.880;-0.862;2023-05-09T07:27:04;100167.69;;;21.25;54.98
72359;BME280;60317;48.880;-0.862;2023-05-09T07:29:30;100168.94;;;21.40;54.23
72359;BME280;60317;48.880;-0.862;2023-05-09T07:31:57;100165.19;;;20.94;56.65
72359;BME280;60317;48.880;-0.862;2023-05-09T07:34:23;100156.44;;;20.83;57.03
72359;BME280;60317;48.880;-0.862;2023-05-09T07:36:50;100157.00;;;20.96;56.02
72359;BME280;60317;48.880;-0.862;2023-05-09T07:39:17;100162.88;;;21.19;55.17
72359;BME280;60317;48.880;-0.862;2023-05-09T07:41:43;100166.28;;;21.21;55.41
72359;BME280;60317;48.880;-0.862;2023-05-09T07:44:11;100158.97;;;20.84;56.55
72359;BME280;60317;48.880;-0.862;2023-05-09T07:46:38;100164.50;;;20.73;56.91
72359;BME280;60317;48.880;-0.862;2023-05-09T07:49:04;100164.94;;;20.59;57.48
72359;BME280;60317;48.880;-0.862;2023-05-09T07:51:31;100161.97;;;20.52;57.69
72359;BME280;60317;48.880;-0.862;2023-05-09T07:53:57;100163.06;;;20.49;57.84
72359;BME280;60317;48.880;-0.862;2023-05-09T07:56:24;100163.81;;;20.61;57.01
72359;BME280;60317;48.880;-0.862;2023-05-09T07:58:50;100162.53;;;20.75;56.55
72359;BME280;60317;48.880;-0.862;2023-05-09T08:01:21;100171.56;;;20.84;55.98
72359;BME280;60317;48.880;-0.862;2023-05-09T08:03:48;100165.19;;;20.85;55.90
72359;BME280;60317;48.880;-0.862;2023-05-09T08:06:14;100163.94;;;20.79;56.28
72359;BME280;60317;48.880;-0.862;2023-05-09T08:08:41;100168.03;;;20.73;56.22
72359;BME280;60317;48.880;-0.862;2023-05-09T08:11:08;100165.06;;;20.77;55.80
72359;BME280;60317;48.880;-0.862;2023-05-09T08:13:34;100161.66;;;20.84;55.58
72359;BME280;60317;48.880;-0.862;2023-05-09T08:16:01;100168.44;;;20.88;55.57
72359;BME280;60317;48.880;-0.862;2023-05-09T08:18:29;100167.75;;;20.86;55.54
72359;BME280;60317;48.880;-0.862;2023-05-09T08:20:55;100170.88;;;20.72;56.72
72359;BME280;60317;48.880;-0.862;2023-05-09T08:23:21;100167.03;;;20.84;56.14
72359;BME280;60317;48.880;-0.862;2023-05-09T08:25:51;100168.31;;;20.80;56.03
72359;BME280;60317;48.880;-0.862;2023-05-09T08:28:18;100175.25;;;20.92;55.64
72359;BME280;60317;48.880;-0.862;2023-05-09T08:30:44;100168.44;;;20.98;55.13
72359;BME280;60317;48.880;-0.862;2023-05-09T08:33:11;100161.94;;;21.01;55.12
72359;BME280;60317;48.880;-0.862;2023-05-09T08:35:39;100166.03;;;21.05;55.10
72359;BME280;60317;48.880;-0.862;2023-05-09T08:38:05;100166.47;;;21.10;55.02
72359;BME280;60317;48.880;-0.862;2023-05-09T08:40:34;100164.22;;;20.95;55.23
72359;BME280;60317;48.880;-0.862;2023-05-09T08:43:02;100163.91;;;20.98;54.78
72359;BME280;60317;48.880;-0.862;2023-05-09T08:45:33;100162.78;;;21.01;54.88
72359;BME280;60317;48.880;-0.862;2023-05-09T08:48:01;100157.13;;;20.94;55.75
72359;BME280;60317;48.880;-0.862;2023-05-09T08:50:28;100159.34;;;21.18;54.94
72359;BME280;60317;48.880;-0.862;2023-05-09T08:52:56;100166.69;;;21.26;54.88
72359;BME280;60317;48.880;-0.862;2023-05-09T08:55:23;100160.81;;;20.93;56.14
72359;BME280;60317;48.880;-0.862;2023-05-09T08:57:51;100157.28;;;20.64;57.25
72359;BME280;60317;48.880;-0.862;2023-05-09T09:00:19;100154.94;;;20.61;57.32
72359;BME280;60317;48.880;-0.862;2023-05-09T09:02:47;100150.25;;;20.63;57.45
72359;BME280;60317;48.880;-0.862;2023-05-09T09:05:14;100143.47;;;20.59;57.44
72359;BME280;60317;48.880;-0.862;2023-05-09T09:08:02;100142.91;;;20.55;57.55
72359;BME280;60317;48.880;-0.862;2023-05-09T09:10:30;100140.94;;;20.57;57.53
72359;BME280;60317;48.880;-0.862;2023-05-09T09:12:58;100149.13;;;20.56;57.64
72359;BME280;60317;48.880;-0.862;2023-05-09T09:15:27;100145.53;;;20.45;57.96
72359;BME280;60317;48.880;-0.862;2023-05-09T09:17:58;100148.50;;;20.42;57.98
72359;BME280;60317;48.880;-0.862;2023-05-09T09:20:32;100150.06;;;20.45;58.02
72359;BME280;60317;48.880;-0.862;2023-05-09T09:23:02;100151.06;;;20.44;58.10
72359;BME280;60317;48.880;-0.862;2023-05-09T09:25:29;100150.63;;;20.39;58.15
72359;BME280;60317;48.880;-0.862;2023-05-09T09:27:56;100145.69;;;20.34;58.38
72359;BME280;60317;48.880;-0.862;2023-05-09T09:30:23;100148.38;;;20.34;58.59
72359;BME280;60317;48.880;-0.862;2023-05-09T09:32:50;100152.06;;;20.33;58.81
72359;BME280;60317;48.880;-0.862;2023-05-09T09:35:16;100146.69;;;20.33;58.71
72359;BME280;60317;48.880;-0.862;2023-05-09T09:37:43;100151.34;;;20.31;58.84
72359;BME280;60317;48.880;-0.862;2023-05-09T09:40:11;100148.94;;;20.28;59.11
72359;BME280;60317;48.880;-0.862;2023-05-09T09:42:40;100149.50;;;20.32;59.12
72359;BME280;60317;48.880;-0.862;2023-05-09T09:45:09;100155.72;;;20.32;59.08
72359;BME280;60317;48.880;-0.862;2023-05-09T09:47:36;100149.66;;;20.30;59.42
72359;BME280;60317;48.880;-0.862;2023-05-09T09:50:09;100150.91;;;20.26;59.80
72359;BME280;60317;48.880;-0.862;2023-05-09T09:52:40;100141.88;;;20.27;59.28
72359;BME280;60317;48.880;-0.862;2023-05-09T09:55:07;100138.47;;;20.25;59.34
72359;BME280;60317;48.880;-0.862;2023-05-09T09:57:37;100146.81;;;20.22;59.57
72359;BME280;60317;48.880;-0.862;2023-05-09T10:00:04;100147.09;;;20.19;59.80
72359;BME280;60317;48.880;-0.862;2023-05-09T10:02:31;100148.94;;;20.18;59.73
72359;BME280;60317;48.880;-0.862;2023-05-09T10:05:05;100140.88;;;20.28;59.51
72359;BME280;60317;48.880;-0.862;2023-05-09T10:07:32;100144.84;;;20.24;59.52
72359;BME280;60317;48.880;-0.862;2023-05-09T10:09:59;100142.69;;;20.18;59.71
72359;BME280;60317;48.880;-0.862;2023-05-09T10:12:26;100145.69;;;20.24;59.46
72359;BME280;60317;48.880;-0.862;2023-05-09T10:14:53;100141.00;;;20.17;59.58
72359;BME280;60317;48.880;-0.862;2023-05-09T10:17:21;100146.69;;;20.43;58.74
72359;BME280;60317;48.880;-0.862;2023-05-09T10:19:48;100150.66;;;20.78;57.41
72359;BME280;60317;48.880;-0.862;2023-05-09T10:22:17;100144.97;;;20.90;56.86
72359;BME280;60317;48.880;-0.862;2023-05-09T10:24:47;100147.78;;;20.98;56.66
72359;BME280;60317;48.880;-0.862;2023-05-09T10:27:19;100143.84;;;21.03;56.45
72359;BME280;60317;48.880;-0.862;2023-05-09T10:29:50;100141.28;;;21.11;56.21
72359;BME280;60317;48.880;-0.862;2023-05-09T10:32:24;100135.94;;;20.91;56.16
72359;BME280;60317;48.880;-0.862;2023-05-09T10:34:57;100133.72;;;20.58;57.78
72359;BME280;60317;48.880;-0.862;2023-05-09T10:37:27;100146.25;;;20.38;58.48
72359;BME280;60317;48.880;-0.862;2023-05-09T10:39:56;100142.72;;;20.37;58.22
72359;BME280;60317;48.880;-0.862;2023-05-09T10:42:23;100138.47;;;20.35;58.09
72359;BME280;60317;48.880;-0.862;2023-05-09T10:44:51;100139.59;;;20.32;58.39
72359;BME280;60317;48.880;-0.862;2023-05-09T10:47:18;100137.91;;;20.31;58.78
72359;BME280;60317;48.880;-0.862;2023-05-09T10:49:48;100141.16;;;20.25;58.29
72359;BME280;60317;48.880;-0.862;2023-05-09T10:52:14;100139.47;;;20.24;58.63
72359;BME280;60317;48.880;-0.862;2023-05-09T10:54:41;100147.78;;;20.21;58.57
72359;BME280;60317;48.880;-0.862;2023-05-09T10:57:08;100145.28;;;20.29;58.59
72359;BME280;60317;48.880;-0.862;2023-05-09T10:59:37;100138.34;;;20.26;59.46
72359;BME280;60317;48.880;-0.862;2023-05-09T11:02:04;100133.66;;;20.29;60.03
72359;BME280;60317;48.880;-0.862;2023-05-09T11:04:31;100128.44;;;20.17;59.58
72359;BME280;60317;48.880;-0.862;2023-05-09T11:07:00;100129.97;;;20.10;60.24
72359;BME280;60317;48.880;-0.862;2023-05-09T11:09:30;100136.19;;;20.11;60.67
72359;BME280;60317;48.880;-0.862;2023-05-09T11:12:00;100117.84;;;20.06;60.37
72359;BME280;60317;48.880;-0.862;2023-05-09T11:14:38;100117.28;;;20.12;60.38
72359;BME280;60317;48.880;-0.862;2023-05-09T11:17:07;100110.94;;;20.13;60.51
72359;BME280;60317;48.880;-0.862;2023-05-09T11:22:19;100119.41;;;20.28;59.91
72359;BME280;60317;48.880;-0.862;2023-05-09T11:24:49;100113.63;;;20.33;60.09
72359;BME280;60317;48.880;-0.862;2023-05-09T11:27:19;100105.72;;;20.31;60.15
72359;BME280;60317;48.880;-0.862;2023-05-09T11:29:49;100103.75;;;20.43;60.19
72359;BME280;60317;48.880;-0.862;2023-05-09T11:32:17;100103.75;;;20.72;58.67
72359;BME280;60317;48.880;-0.862;2023-05-09T11:34:46;100109.06;;;20.91;58.01
72359;BME280;60317;48.880;-0.862;2023-05-09T11:37:17;100108.19;;;21.01;57.57
72359;BME280;60317;48.880;-0.862;2023-05-09T11:39:55;100100.53;;;21.06;57.30
72359;BME280;60317;48.880;-0.862;2023-05-09T11:42:25;100104.22;;;21.05;57.38
72359;BME280;60317;48.880;-0.862;2023-05-09T11:44:54;100103.69;;;20.91;56.85
72359;BME280;60317;48.880;-0.862;2023-05-09T11:47:22;100104.25;;;20.95;56.95
72359;BME280;60317;48.880;-0.862;2023-05-09T11:49:50;100108.19;;;21.10;56.32
72359;BME280;60317;48.880;-0.862;2023-05-09T11:52:19;100100.22;;;21.18;56.19
72359;BME280;60317;48.880;-0.862;2023-05-09T11:54:47;100101.63;;;21.23;56.20
72359;BME280;60317;48.880;-0.862;2023-05-09T11:57:14;100101.19;;;21.27;56.04
72359;BME280;60317;48.880;-0.862;2023-05-09T11:59:42;100096.22;;;21.32;55.91
72359;BME280;60317;48.880;-0.862;2023-05-09T12:02:10;100092.41;;;21.35;55.92
72359;BME280;60317;48.880;-0.862;2023-05-09T12:04:39;100099.75;;;21.33;55.88
72359;BME280;60317;48.880;-0.862;2023-05-09T12:07:10;100096.69;;;21.18;55.81
72359;BME280;60317;48.880;-0.862;2023-05-09T12:09:40;100095.88;;;21.08;55.41
72359;BME280;60317;48.880;-0.862;2023-05-09T12:12:08;100085.94;;;21.18;55.43
72359;BME280;60317;48.880;-0.862;2023-05-09T12:14:36;100089.44;;;21.28;55.36
72359;BME280;60317;48.880;-0.862;2023-05-09T12:17:05;100087.72;;;21.37;55.01
72359;BME280;60317;48.880;-0.862;2023-05-09T12:19:33;100081.22;;;21.39;55.03
72359;BME280;60317;48.880;-0.862;2023-05-09T12:22:01;100078.91;;;21.44;54.89
72359;BME280;60317;48.880;-0.862;2023-05-09T12:24:29;100090.78;;;21.52;54.96
72359;BME280;60317;48.880;-0.862;2023-05-09T12:26:58;100090.34;;;21.56;54.76
72359;BME280;60317;48.880;-0.862;2023-05-09T12:29:26;100088.22;;;21.50;55.08
72359;BME280;60317;48.880;-0.862;2023-05-09T12:31:54;100088.28;;;21.40;56.28
72359;BME280;60317;48.880;-0.862;2023-05-09T12:34:21;100089.44;;;21.28;56.06
72359;BME280;60317;48.880;-0.862;2023-05-09T12:36:48;100091.16;;;21.19;55.43
72359;BME280;60317;48.880;-0.862;2023-05-09T12:39:15;100085.75;;;21.29;55.08
72359;BME280;60317;48.880;-0.862;2023-05-09T12:41:44;100096.75;;;21.46;54.65
72359;BME280;60317;48.880;-0.862;2023-05-09T12:44:28;100095.72;;;21.56;54.44
72359;BME280;60317;48.880;-0.862;2023-05-09T12:46:58;100088.19;;;21.60;54.40